Time;durP1;ratioP1;P1;durP2;ratioP2;P2;SDS_P1;SDS_P2;PMS_P1;PMS_P2;Temp;Humidity;BMP_temperature;BMP_pressure;BME280_temperature;BME280_humidity;BME280_pressure;Samples;Min_cycle;Max_cycle;Signal;HPM_P1;HPM_P2
2022/05/09 00:00:22;;;;;;;9.08;2.65;;;;;;;11.79;53.02;101780.62;1773414;80;25475;-57
2022/05/09 00:02:51;;;;;;;7.25;2.30;;;;;;;11.80;52.55;101786.39;1747111;80;25681;-57
2022/05/09 00:05:22;;;;;;;11.08;2.47;;;;;;;11.78;52.37;101787.49;1744656;82;26746;-57
2022/05/09 00:07:49;;;;;;;6.50;2.20;;;;;;;11.76;52.62;101784.92;1744388;82;25709;-57
2022/05/09 00:10:20;;;;;;;9.50;2.27;;;;;;;11.74;52.85;101777.44;1744566;82;27573;-57
2022/05/09 00:12:48;;;;;;;11.93;2.05;;;;;;;11.72;52.90;101774.88;1744419;82;25684;-56
2022/05/09 00:15:17;;;;;;;7.05;2.20;;;;;;;11.71;52.94;101773.63;1744551;80;25752;-56
2022/05/09 00:17:49;;;;;;;6.55;2.35;;;;;;;11.70;52.90;101771.43;1744419;82;26839;-57
2022/05/09 00:20:18;;;;;;;6.67;2.25;;;;;;;11.70;52.97;101772.78;1744109;82;43967;-56
2022/05/09 00:22:54;;;;;;;7.53;2.45;;;;;;;11.71;53.36;101776.31;1744343;82;28351;-57
2022/05/09 00:25:25;;;;;;;5.50;2.27;;;;;;;11.72;53.24;101776.22;1744334;80;25828;-57
2022/05/09 00:27:53;;;;;;;7.62;2.50;;;;;;;11.72;53.18;101776.69;1744418;82;25725;-57
2022/05/09 00:30:21;;;;;;;5.92;2.37;;;;;;;11.71;53.30;101777.67;1744500;81;25781;-57
2022/05/09 00:32:49;;;;;;;5.62;2.50;;;;;;;11.71;52.97;101772.27;1743557;82;25829;-57
2022/05/09 00:35:17;;;;;;;10.95;2.10;;;;;;;11.71;53.18;101767.77;1742920;82;27565;-57
2022/05/09 00:37:43;;;;;;;7.95;2.27;;;;;;;11.69;53.25;101774.26;1742714;82;25732;-57
2022/05/09 00:40:14;;;;;;;7.25;2.58;;;;;;;11.68;53.44;101767.14;1742779;82;25608;-57
2022/05/09 00:42:48;;;;;;;6.75;2.12;;;;;;;11.63;53.60;101772.02;1742798;82;25809;-57
2022/05/09 00:45:17;;;;;;;9.70;2.67;;;;;;;11.57;53.57;101770.17;1741544;81;25907;-57
2022/05/09 00:47:47;;;;;;;14.45;2.75;;;;;;;11.55;54.05;101772.13;1740123;82;27210;-57
2022/05/09 00:50:19;;;;;;;12.23;2.55;;;;;;;11.54;53.83;101774.44;1753811;80;25768;-57
2022/05/09 00:53:02;;;;;;;11.55;2.55;;;;;;;11.51;53.74;101772.48;1774266;80;25708;-57
2022/05/09 00:55:41;;;;;;;5.47;2.47;;;;;;;11.50;53.68;101776.14;1775062;80;25788;-57
2022/05/09 00:58:15;;;;;;;6.40;2.08;;;;;;;11.49;54.54;101770.38;1774768;80;25778;-58
2022/05/09 01:00:45;;;;;;;11.28;2.70;;;;;;;11.49;54.37;101768.56;1773321;80;27461;-57
2022/05/09 01:03:18;;;;;;;13.03;2.00;;;;;;;11.47;54.13;101771.86;1714070;82;25827;-56
2022/05/09 01:05:50;;;;;;;10.93;2.80;;;;;;;11.47;54.18;101771.02;1714166;83;25841;-57
2022/05/09 01:08:13;;;;;;;8.30;2.70;;;;;;;11.45;54.21;101767.56;1714000;83;25976;-57
2022/05/09 01:10:42;;;;;;;10.10;3.60;;;;;;;11.42;54.21;101766.82;1714147;83;25793;-57
2022/05/09 01:13:12;;;;;;;10.00;2.62;;;;;;;11.38;54.26;101772.55;1714263;82;27620;-57
2022/05/09 01:15:41;;;;;;;6.53;2.37;;;;;;;11.35;54.33;101762.88;1714124;82;25739;-57
2022/05/09 01:18:11;;;;;;;9.50;2.30;;;;;;;11.28;54.63;101753.05;1714397;82;25970;-57
2022/05/09 01:20:38;;;;;;;3.40;2.20;;;;;;;11.25;54.53;101764.55;1714188;82;25739;-57
2022/05/09 01:23:07;;;;;;;11.18;2.33;;;;;;;11.25;54.29;101760.01;1714242;82;25695;-57
2022/05/09 01:25:34;;;;;;;9.60;2.42;;;;;;;11.26;54.74;101756.34;1714247;83;27545;-57
2022/05/09 01:28:02;;;;;;;11.03;2.30;;;;;;;11.24;54.65;101759.66;1714336;83;25702;-56
2022/05/09 01:30:52;;;;;;;6.90;2.00;;;;;;;11.21;54.51;101751.80;1714148;83;25684;-57
2022/05/09 01:33:39;;;;;;;7.83;2.00;;;;;;;11.23;54.34;101761.11;1730006;82;27864;-57
2022/05/09 01:36:16;;;;;;;9.58;2.25;;;;;;;11.20;54.36;101755.97;1735263;82;25891;-57
2022/05/09 01:38:55;;;;;;;5.92;2.00;;;;;;;11.16;54.53;101753.13;1734959;82;27429;-56
2022/05/09 01:41:23;;;;;;;10.13;3.27;;;;;;;11.14;54.65;101753.25;1735021;82;25923;-57
2022/05/09 01:43:55;;;;;;;7.87;2.45;;;;;;;11.12;54.63;101752.00;1735136;82;25965;-57
2022/05/09 01:46:25;;;;;;;5.97;2.45;;;;;;;11.12;55.06;101755.20;1735162;82;26008;-57
2022/05/09 01:51:42;;;;;;;7.33;2.12;;;;;;;11.07;55.01;101750.16;1735074;82;27513;-57
2022/05/09 01:54:11;;;;;;;9.35;2.62;;;;;;;11.02;55.22;101751.00;1735353;82;25760;-57
2022/05/09 01:56:40;;;;;;;13.58;2.33;;;;;;;11.07;55.38;101753.35;1760685;81;25820;-58
2022/05/09 01:59:10;;;;;;;11.28;2.40;;;;;;;11.07;55.23;101752.00;1770114;80;25911;-57
2022/05/09 02:01:48;;;;;;;12.20;2.58;;;;;;;11.07;55.38;101755.54;1756820;81;26139;-57
2022/05/09 02:04:15;;;;;;;12.05;2.70;;;;;;;11.05;55.47;101755.29;1737992;82;27563;-57
2022/05/09 02:06:42;;;;;;;11.08;3.45;;;;;;;11.05;56.10;101759.33;1737471;82;25864;-58
2022/05/09 02:09:11;;;;;;;13.00;2.30;;;;;;;11.09;56.88;101759.45;1738004;82;26409;-57
2022/05/09 02:11:38;;;;;;;10.72;2.10;;;;;;;11.13;56.45;101759.61;1737792;82;25930;-56
2022/05/09 02:14:06;;;;;;;8.90;2.05;;;;;;;11.17;56.45;101757.04;1737704;82;25780;-57
2022/05/09 02:16:33;;;;;;;9.48;2.10;;;;;;;11.21;57.00;101759.89;1737772;82;28578;-57
2022/05/09 02:19:00;;;;;;;6.12;1.60;;;;;;;11.27;57.66;101761.26;1737620;82;26057;-56
2022/05/09 02:21:27;;;;;;;10.32;2.00;;;;;;;11.27;57.34;101763.95;1737759;82;25721;-56
2022/05/09 02:23:54;;;;;;;8.35;2.10;;;;;;;11.31;57.74;101767.27;1738219;82;26938;-57
2022/05/09 02:26:21;;;;;;;7.58;1.87;;;;;;;11.34;57.78;101769.74;1737816;82;25629;-58
2022/05/09 02:28:47;;;;;;;11.83;2.02;;;;;;;11.38;57.52;101773.44;1737665;82;27397;-57
2022/05/09 02:31:14;;;;;;;8.88;1.92;;;;;;;11.44;57.55;101766.69;1737581;82;27285;-57
2022/05/09 02:33:41;;;;;;;10.15;2.27;;;;;;;11.48;57.46;101766.84;1735223;82;25710;-57
2022/05/09 02:36:08;;;;;;;9.60;2.58;;;;;;;11.54;57.41;101769.55;1734963;82;25769;-58
2022/05/09 02:38:35;;;;;;;15.25;2.50;;;;;;;11.59;57.40;101768.23;1735173;82;25688;-57
2022/05/09 02:41:02;;;;;;;6.10;2.52;;;;;;;11.62;57.31;101767.12;1734924;82;27493;-56
2022/05/09 02:43:29;;;;;;;17.02;2.70;;;;;;;11.64;57.31;101766.52;1735029;82;25713;-57
2022/05/09 02:46:03;;;;;;;9.53;2.10;;;;;;;11.64;57.27;101762.95;1748459;80;25728;-57
2022/05/09 02:48:24;;;;;;;8.78;2.52;;;;;;;11.67;57.01;101767.61;1751759;80;25854;-57
2022/05/09 02:50:50;;;;;;;10.93;3.12;;;;;;;11.68;56.89;101771.19;1713726;82;25638;-57
2022/05/09 02:53:17;;;;;;;11.05;2.40;;;;;;;11.65;56.78;101774.11;1700039;82;28498;-57
2022/05/09 02:55:44;;;;;;;9.85;1.72;;;;;;;11.63;56.69;101778.28;1699820;84;25744;-57
2022/05/09 02:58:12;;;;;;;10.35;2.22;;;;;;;11.59;56.53;101774.97;1699818;82;25691;-57
2022/05/09 03:00:39;;;;;;;9.63;2.22;;;;;;;11.53;56.89;101781.31;1700080;82;25782;-57
2022/05/09 03:05:51;;;;;;;7.75;2.62;;;;;;;11.39;57.23;101783.70;1710329;83;27497;-57
2022/05/09 03:08:18;;;;;;;11.35;2.30;;;;;;;11.34;57.05;101773.28;1710212;83;25713;-57
2022/05/09 03:10:46;;;;;;;16.65;2.67;;;;;;;11.30;56.98;101773.63;1710381;83;25762;-57
2022/05/09 03:13:14;;;;;;;13.48;2.58;;;;;;;11.25;57.03;101773.48;1710351;82;25780;-58
2022/05/09 03:15:46;;;;;;;20.12;3.37;;;;;;;11.21;57.08;101773.82;1710558;83;25848;-57
2022/05/09 03:18:17;;;;;;;11.93;3.02;;;;;;;11.16;57.04;101775.52;1710555;83;27444;-58
2022/05/09 03:20:45;;;;;;;12.88;2.72;;;;;;;11.12;57.29;101768.66;1710334;83;25786;-57
2022/05/09 03:23:13;;;;;;;29.82;3.70;;;;;;;11.05;57.20;101768.75;1710130;83;25801;-58
2022/05/09 03:25:41;;;;;;;16.52;3.95;;;;;;;10.99;57.53;101770.53;1710490;83;26005;-58
2022/05/09 03:28:18;;;;;;;12.33;2.35;;;;;;;10.95;57.56;101776.17;1710466;82;25801;-58
2022/05/09 03:30:48;;;;;;;17.90;4.28;;;;;;;10.96;57.66;101784.62;1710497;83;27481;-57
2022/05/09 03:33:16;;;;;;;9.88;2.50;;;;;;;10.98;57.37;101779.61;1704452;83;25638;-57
2022/05/09 03:35:44;;;;;;;9.45;3.15;;;;;;;11.00;57.41;101784.38;1702311;84;25456;-57
2022/05/09 03:38:12;;;;;;;15.68;3.12;;;;;;;10.99;57.28;101779.95;1702565;84;25742;-57
2022/05/09 03:40:40;;;;;;;17.37;2.77;;;;;;;11.01;57.11;101784.28;1702435;84;25791;-57
2022/05/09 03:43:07;;;;;;;17.92;2.55;;;;;;;11.04;57.11;101782.69;1702375;83;27422;-56
2022/05/09 03:45:35;;;;;;;7.50;2.30;;;;;;;11.11;57.06;101793.87;1702078;84;25903;-57
2022/05/09 03:48:05;;;;;;;11.08;3.40;;;;;;;11.15;57.15;101791.33;1706324;82;25754;-57
2022/05/09 03:50:32;;;;;;;8.33;2.40;;;;;;;11.20;57.49;101799.91;1765116;80;25750;-58
2022/05/09 03:52:58;;;;;;;9.58;2.20;;;;;;;11.25;57.15;101806.30;1788722;79;26053;-58
2022/05/09 03:55:25;;;;;;;9.45;2.30;;;;;;;11.28;57.10;101805.58;1788534;79;28362;-56
2022/05/09 03:57:55;;;;;;;13.43;2.30;;;;;;;11.31;57.02;101810.38;1788470;79;25761;-57
2022/05/09 04:00:26;;;;;;;13.08;2.72;;;;;;;11.33;56.87;101808.43;1788439;80;25718;-57
2022/05/09 04:02:53;;;;;;;7.45;3.10;;;;;;;11.38;57.07;101806.23;1788718;80;26453;-57
2022/05/09 04:05:21;;;;;;;13.03;2.62;;;;;;;11.40;57.04;101805.13;1788413;80;25750;-57
2022/05/09 04:07:53;;;;;;;13.10;3.47;;;;;;;11.47;57.00;101807.38;1788552;80;27572;-57
2022/05/09 04:10:24;;;;;;;18.62;3.00;;;;;;;11.52;57.21;101808.73;1788164;80;25733;-56
2022/05/09 04:12:51;;;;;;;16.87;2.90;;;;;;;11.61;57.13;101811.22;1788806;79;25729;-57
2022/05/09 04:18:06;;;;;;;14.05;4.17;;;;;;;11.78;57.26;101809.94;1788352;80;25816;-58
2022/05/09 04:20:35;;;;;;;14.07;4.80;;;;;;;11.84;57.64;101810.80;1788137;80;28485;-57
2022/05/09 04:23:02;;;;;;;12.23;3.55;;;;;;;11.88;57.50;101805.52;1788459;80;25763;-57
2022/05/09 04:25:34;;;;;;;11.68;4.15;;;;;;;11.89;57.21;101804.55;1788459;80;25889;-57
2022/05/09 04:28:06;;;;;;;30.27;3.98;;;;;;;11.94;57.27;101806.88;1788115;80;25795;-57
2022/05/09 04:30:35;;;;;;;26.30;4.37;;;;;;;11.97;57.07;101805.81;1788538;79;26142;-57
2022/05/09 04:33:04;;;;;;;21.37;4.25;;;;;;;11.95;57.15;101797.81;1753298;80;28306;-57
2022/05/09 04:35:33;;;;;;;21.12;4.85;;;;;;;11.98;57.10;101807.53;1732991;82;25484;-58
2022/05/09 04:38:02;;;;;;;17.35;4.42;;;;;;;12.00;57.23;101790.75;1732745;82;25783;-58
2022/05/09 04:40:32;;;;;;;21.27;4.47;;;;;;;12.00;56.92;101796.14;1733023;82;25830;-58
2022/05/09 04:43:01;;;;;;;16.93;3.52;;;;;;;12.05;56.97;101798.01;1732741;82;25938;-57
2022/05/09 04:45:30;;;;;;;25.15;4.42;;;;;;;12.11;56.96;101796.64;1733093;82;27662;-56
2022/05/09 04:47:58;;;;;;;26.65;4.55;;;;;;;12.14;56.99;101804.03;1756757;81;26096;-57
2022/05/09 04:50:27;;;;;;;29.67;4.15;;;;;;;12.17;57.13;101807.81;1761604;80;25463;-57
2022/05/09 04:52:55;;;;;;;20.55;3.95;;;;;;;12.21;57.14;101806.60;1748649;82;26475;-56
2022/05/09 04:55:24;;;;;;;17.48;4.20;;;;;;;12.28;57.05;101800.20;1748598;81;25724;-56
2022/05/09 04:57:52;;;;;;;18.23;4.55;;;;;;;12.35;57.02;101807.33;1748676;82;27529;-56
2022/05/09 05:00:24;;;;;;;24.32;4.80;;;;;;;12.43;56.69;101806.72;1748674;81;25563;-57
2022/05/09 05:02:53;;;;;;;14.95;4.20;;;;;;;12.48;56.55;101803.16;1753534;81;25752;-57
2022/05/09 05:05:21;;;;;;;15.83;4.00;;;;;;;12.52;56.56;101801.94;1754540;81;26493;-57
2022/05/09 05:07:48;;;;;;;10.75;3.77;;;;;;;12.57;56.33;101798.36;1753981;81;25716;-57
2022/05/09 05:10:16;;;;;;;24.25;4.22;;;;;;;12.61;56.21;101795.80;1754551;81;27688;-57
2022/05/09 05:12:43;;;;;;;14.03;4.35;;;;;;;12.66;56.14;101802.17;1753956;81;26305;-57
2022/05/09 05:15:12;;;;;;;27.48;3.98;;;;;;;12.72;56.13;101800.81;1754439;81;25533;-57
2022/05/09 05:17:39;;;;;;;17.25;3.65;;;;;;;12.80;56.17;101803.24;1754258;81;26521;-58
2022/05/09 05:20:12;;;;;;;27.45;4.65;;;;;;;12.91;56.21;101809.61;1754202;81;25806;-57
2022/05/09 05:22:42;;;;;;;38.35;7.97;;;;;;;12.98;55.99;101813.04;1754156;81;27482;-57
2022/05/09 05:25:11;;;;;;;28.60;4.45;;;;;;;13.07;55.76;101817.31;1754108;81;25782;-58
2022/05/09 05:27:39;;;;;;;22.62;3.87;;;;;;;13.12;55.58;101811.90;1754481;81;25799;-57
2022/05/09 05:30:09;;;;;;;28.05;4.17;;;;;;;13.21;55.51;101810.26;1754024;81;25787;-57
2022/05/09 05:32:39;;;;;;;26.15;4.35;;;;;;;13.27;55.33;101815.65;1754470;81;25715;-57
2022/05/09 05:35:12;;;;;;;21.93;4.97;;;;;;;13.35;55.36;101812.31;1753375;81;27482;-57
2022/05/09 05:37:39;;;;;;;20.90;4.28;;;;;;;13.42;55.24;101816.24;1754026;81;25489;-57
2022/05/09 05:40:09;;;;;;;24.65;4.45;;;;;;;13.50;55.31;101814.22;1753859;81;25738;-57
2022/05/09 05:42:42;;;;;;;19.30;4.72;;;;;;;13.56;55.13;101815.92;1754109;81;26467;-57
2022/05/09 05:45:12;;;;;;;26.00;6.10;;;;;;;13.65;54.92;101814.77;1753904;81;25875;-57
2022/05/09 05:47:40;;;;;;;29.63;4.87;;;;;;;13.74;54.62;101809.93;1753855;81;27586;-57
2022/05/09 05:50:10;;;;;;;33.28;4.35;;;;;;;13.84;54.55;101813.56;1761581;80;25960;-57
2022/05/09 05:52:37;;;;;;;40.90;5.75;;;;;;;13.95;54.46;101813.14;1788483;80;25485;-57
2022/05/09 05:55:06;;;;;;;82.72;7.60;;;;;;;14.05;54.29;101816.77;1788210;79;25811;-56
2022/05/09 05:57:37;;;;;;;50.67;5.90;;;;;;;14.15;54.01;101816.33;1788517;79;25736;-57
2022/05/09 06:00:09;;;;;;;37.17;5.58;;;;;;;14.24;53.64;101815.52;1788362;80;27631;-57
2022/05/09 06:02:46;;;;;;;25.52;5.72;;;;;;;14.34;53.51;101822.83;1749621;80;25738;-57
2022/05/09 06:05:16;;;;;;;24.57;5.33;;;;;;;14.45;53.28;101820.52;1743497;82;25736;-57
2022/05/09 06:07:46;;;;;;;28.55;5.55;;;;;;;14.54;53.14;101814.28;1743731;82;25744;-57
2022/05/09 06:10:15;;;;;;;45.90;8.73;;;;;;;14.69;53.10;101814.30;1743377;82;25780;-57
2022/05/09 06:12:42;;;;;;;18.70;5.17;;;;;;;14.85;53.01;101819.67;1757747;81;27681;-57
2022/05/09 06:16:12;;;;;;;23.30;5.80;;;;;;;15.02;52.58;101820.86;1769439;80;25822;-57
2022/05/09 06:17:49;;;;;;;26.97;4.35;;;;;;;15.20;51.67;101820.17;1727260;81;25742;-57
2022/05/09 06:20:16;;;;;;;14.85;4.58;;;;;;;15.39;51.48;101815.25;1769400;81;25838;-57
2022/05/09 06:22:43;;;;;;;21.50;4.50;;;;;;;15.58;50.34;101819.33;1769596;80;25771;-57
2022/05/09 06:25:16;;;;;;;27.52;5.20;;;;;;;15.77;49.89;101810.81;1769664;80;27451;-57
2022/05/09 06:27:45;;;;;;;24.80;4.92;;;;;;;15.95;49.74;101800.95;1770236;80;25690;-58
2022/05/09 06:30:15;;;;;;;20.05;4.20;;;;;;;16.17;49.32;101812.97;1761897;80;25717;-57
2022/05/09 06:32:43;;;;;;;14.13;4.20;;;;;;;16.34;49.21;101809.99;1746956;80;25879;-58
2022/05/09 06:35:14;;;;;;;25.17;4.58;;;;;;;16.48;48.30;101814.09;1714639;81;25738;-57
2022/05/09 06:37:42;;;;;;;27.90;6.85;;;;;;;16.59;48.15;101805.23;1738409;81;27501;-57
2022/05/09 06:40:11;;;;;;;30.62;5.12;;;;;;;16.75;47.78;101814.58;1729246;82;25964;-57
2022/05/09 06:42:39;;;;;;;28.75;6.20;;;;;;;16.87;47.49;101817.45;1686403;84;25631;-58
2022/05/09 06:45:08;;;;;;;21.05;4.15;;;;;;;16.98;47.01;101815.05;1684057;84;25785;-57
2022/05/09 06:47:47;;;;;;;25.68;4.08;;;;;;;17.09;46.66;101824.00;1683685;84;25759;-57
2022/05/09 06:50:16;;;;;;;79.12;11.28;;;;;;;17.18;46.63;101814.41;1691401;83;27591;-58
2022/05/09 06:52:43;;;;;;;18.02;4.40;;;;;;;17.32;46.47;101818.45;1699768;84;25770;-57
2022/05/09 06:55:12;;;;;;;9.35;3.95;;;;;;;17.47;46.26;101816.56;1685083;84;25749;-57
2022/05/09 06:57:41;;;;;;;11.90;4.58;;;;;;;17.58;45.93;101815.45;1677447;84;25790;-58
2022/05/09 07:00:14;;;;;;;16.87;4.35;;;;;;;17.66;45.82;101823.69;1693841;83;25864;-57
2022/05/09 07:02:41;;;;;;;11.40;4.10;;;;;;;17.74;45.53;101819.67;1696632;83;27427;-57
2022/05/09 07:05:11;;;;;;;14.65;3.65;;;;;;;17.77;45.35;101826.66;1687729;84;25762;-57
2022/05/09 07:07:39;;;;;;;15.90;4.47;;;;;;;17.79;45.51;101832.31;1698268;83;25741;-57
2022/05/09 07:10:08;;;;;;;17.23;4.05;;;;;;;17.78;45.65;101838.77;1681462;84;25946;-57
2022/05/09 07:12:51;;;;;;;22.58;4.22;;;;;;;17.81;45.81;101827.55;1688197;83;26129;-57
2022/05/09 07:15:28;;;;;;;23.47;3.77;;;;;;;17.89;45.96;101834.05;1699641;83;27531;-58
2022/05/09 07:17:58;;;;;;;18.00;4.95;;;;;;;17.89;46.08;101829.48;1702470;83;25894;-57
2022/05/09 07:20:28;;;;;;;10.38;4.20;;;;;;;17.91;46.06;101834.76;1702716;84;25761;-57
2022/05/09 07:23:03;;;;;;;12.78;3.98;;;;;;;17.94;46.06;101838.02;1695572;83;26488;-57
2022/05/09 07:25:30;;;;;;;17.75;5.05;;;;;;;17.98;46.36;101834.00;1687052;83;25820;-58
2022/05/09 07:27:57;;;;;;;9.63;4.83;;;;;;;17.97;46.72;101842.34;1711995;82;27454;-57
2022/05/09 07:30:24;;;;;;;22.07;4.58;;;;;;;17.98;46.86;101839.45;1689895;84;25664;-57
2022/05/09 07:32:54;;;;;;;22.22;4.22;;;;;;;18.12;47.34;101839.38;1706054;83;25725;-57
2022/05/09 07:35:23;;;;;;;16.37;4.17;;;;;;;18.35;47.48;101844.79;1728817;82;25799;-57
2022/05/09 07:37:50;;;;;;;25.05;4.70;;;;;;;18.54;47.06;101845.05;1739258;82;25972;-57
2022/05/09 07:40:20;;;;;;;24.87;5.92;;;;;;;18.66;46.50;101844.25;1739366;82;27565;-57
2022/05/09 07:42:48;;;;;;;7.15;3.83;;;;;;;18.74;46.70;101834.73;1739090;82;25860;-57
2022/05/09 07:45:19;;;;;;;12.65;4.30;;;;;;;18.84;46.13;101830.01;1741093;81;25475;-57
2022/05/09 07:47:46;;;;;;;13.90;4.10;;;;;;;19.00;45.98;101832.50;1739215;82;26831;-57
2022/05/09 07:50:16;;;;;;;13.13;4.35;;;;;;;19.14;45.61;101832.37;1735538;81;25779;-58
2022/05/09 07:52:46;;;;;;;13.20;4.33;;;;;;;19.16;45.72;101834.39;1733682;82;27516;-58
2022/05/09 07:55:15;;;;;;;13.15;3.98;;;;;;;19.17;45.89;101843.80;1748529;81;26138;-58
2022/05/09 07:57:42;;;;;;;11.80;3.85;;;;;;;19.18;46.19;101838.69;1735743;81;25674;-57
2022/05/09 08:00:11;;;;;;;11.22;4.22;;;;;;;19.24;46.12;101837.13;1735606;82;26410;-58
2022/05/09 08:02:42;;;;;;;15.43;3.50;;;;;;;19.41;46.56;101844.01;1733730;82;25763;-57
2022/05/09 08:05:10;;;;;;;16.30;3.92;;;;;;;19.61;47.00;101837.17;1751601;81;27442;-58
2022/05/09 08:07:39;;;;;;;19.87;3.98;;;;;;;19.82;46.49;101839.91;1756388;81;25779;-57
2022/05/09 08:10:11;;;;;;;6.72;3.05;;;;;;;20.06;46.78;101826.78;1756237;81;26379;-58
2022/05/09 08:12:39;;;;;;;8.88;3.58;;;;;;;20.26;46.06;101835.97;1760611;81;26613;-57
2022/05/09 08:15:09;;;;;;;14.85;4.25;;;;;;;20.43;44.81;101828.06;1762892;81;25790;-58
2022/05/09 08:17:36;;;;;;;21.55;4.15;;;;;;;20.67;45.24;101822.15;1761977;81;28328;-58
2022/05/09 08:20:05;;;;;;;17.25;4.17;;;;;;;21.05;44.99;101828.30;1762261;81;25747;-58
2022/05/09 08:22:32;;;;;;;27.15;4.10;;;;;;;21.33;44.58;101825.05;1762667;81;25775;-57
2022/05/09 08:25:04;;;;;;;11.88;4.08;;;;;;;21.56;43.80;101825.88;1762325;81;25859;-58
2022/05/09 08:27:31;;;;;;;12.73;3.62;;;;;;;21.67;43.22;101824.66;1762750;81;26107;-58
2022/05/09 08:29:58;;;;;;;8.03;3.50;;;;;;;21.81;43.19;101820.25;1762288;80;27451;-57
2022/05/09 08:32:27;;;;;;;9.98;3.70;;;;;;;22.00;42.41;101820.76;1755389;81;26096;-57
2022/05/09 08:34:55;;;;;;;10.98;3.50;;;;;;;22.13;42.49;101830.53;1756196;81;25689;-57
2022/05/09 08:37:21;;;;;;;14.95;4.03;;;;;;;22.22;42.52;101830.45;1756573;81;25764;-57
2022/05/09 08:39:49;;;;;;;20.97;3.85;;;;;;;22.36;41.62;101826.87;1756376;81;25714;-58
2022/05/09 08:42:23;;;;;;;7.97;3.25;;;;;;;22.42;41.84;101826.64;1754027;81;27470;-57
2022/05/09 08:45:28;;;;;;;17.60;5.22;;;;;;;22.51;41.42;101827.75;1743016;81;25671;-58
2022/05/09 08:48:09;;;;;;;8.30;3.80;;;;;;;22.49;40.99;101831.73;1743590;82;25736;-57
2022/05/09 08:50:59;;;;;;;9.68;3.72;;;;;;;22.40;40.20;101836.44;1765637;80;25818;-57
2022/05/09 08:53:27;;;;;;;19.77;4.20;;;;;;;22.23;40.85;101834.39;1768168;80;27322;-57
2022/05/09 08:55:57;;;;;;;9.13;4.33;;;;;;;22.39;40.55;101833.87;1745637;81;28252;-58
2022/05/09 08:58:37;;;;;;;35.28;6.87;;;;;;;22.71;40.71;101829.91;1745852;82;25748;-57
2022/05/09 09:01:03;;;;;;;40.08;4.97;;;;;;;22.94;39.79;101821.55;1736442;81;25902;-58
2022/05/09 09:03:39;;;;;;;43.35;5.00;;;;;;;23.12;39.23;101825.22;1711272;82;25998;-58
2022/05/09 09:06:20;;;;;;;84.05;8.60;;;;;;;23.14;39.29;101820.89;1756423;80;25751;-57
2022/05/09 09:09:13;;;;;;;104.92;7.58;;;;;;;23.08;39.12;101817.06;1754802;81;27784;-58
2022/05/09 09:12:00;;;;;;;14.47;3.75;;;;;;;23.04;39.13;101821.22;1756287;81;34862;-58
2022/05/09 09:15:13;;;;;;;39.03;4.90;;;;;;;23.43;39.37;101830.09;1741023;81;25720;-58
2022/05/09 09:18:06;;;;;;;17.75;4.20;;;;;;;23.79;39.48;101822.82;1736401;81;25765;-57
2022/05/09 09:20:44;;;;;;;18.80;3.92;;;;;;;24.40;38.81;101819.44;1714383;83;25800;-58
2022/05/09 09:23:43;;;;;;;10.72;4.03;;;;;;;24.66;38.03;101824.24;1739550;81;29604;-58
2022/05/09 09:26:28;;;;;;;14.53;3.83;;;;;;;25.12;38.21;101830.98;1764879;81;27313;-57
2022/05/09 09:29:03;;;;;;;10.88;3.42;;;;;;;25.66;36.45;101831.64;1725084;81;25897;-58
2022/05/09 09:31:44;;;;;;;8.15;3.50;;;;;;;26.18;34.95;101832.69;1765209;81;26788;-58
2022/05/09 09:34:31;;;;;;;6.65;3.37;;;;;;;26.41;34.52;101832.73;1732747;82;25579;-58
2022/05/09 09:37:09;;;;;;;5.75;2.95;;;;;;;26.86;34.11;101820.92;1745151;82;28314;-57
2022/05/09 09:39:36;;;;;;;13.32;3.20;;;;;;;27.39;33.50;101821.66;1741100;81;25745;-58
2022/05/09 09:42:07;;;;;;;11.03;3.47;;;;;;;27.82;31.53;101819.53;1745483;82;25811;-58
2022/05/09 09:44:38;;;;;;;13.25;2.92;;;;;;;27.58;31.05;101822.60;1745643;81;25788;-58
2022/05/09 09:47:27;;;;;;;12.68;2.95;;;;;;;27.36;30.84;101817.44;1745624;82;26129;-58
2022/05/09 09:50:22;;;;;;;9.25;3.35;;;;;;;27.43;30.42;101814.12;1731572;82;27476;-58
2022/05/09 09:52:54;;;;;;;7.45;2.90;;;;;;;27.19;29.12;101814.36;1714748;83;25751;-59
2022/05/09 09:55:32;;;;;;;10.88;2.85;;;;;;;26.72;30.05;101813.20;1673114;85;25774;-57
2022/05/09 09:58:22;;;;;;;11.12;3.00;;;;;;;26.42;30.76;101809.59;1704633;84;27947;-58
2022/05/09 10:01:14;;;;;;;13.60;3.10;;;;;;;26.04;30.81;101816.66;1702837;84;25725;-57
2022/05/09 10:03:48;;;;;;;7.90;3.47;;;;;;;25.66;31.56;101810.97;1741014;82;27411;-57
2022/05/09 10:06:21;;;;;;;10.25;3.55;;;;;;;25.26;33.18;101811.22;1740448;82;25724;-58
2022/05/09 10:09:04;;;;;;;15.00;4.05;;;;;;;24.75;34.29;101816.67;1740837;82;25773;-58
2022/05/09 10:11:35;;;;;;;19.50;4.12;;;;;;;24.51;35.39;101809.79;1739519;82;25920;-57
2022/05/09 10:14:05;;;;;;;9.43;3.58;;;;;;;24.98;35.17;101808.08;1741035;81;25728;-57
2022/05/09 10:16:48;;;;;;;8.98;3.12;;;;;;;26.07;34.08;101807.11;1739646;82;27516;-58
2022/05/09 10:19:31;;;;;;;8.60;2.70;;;;;;;27.12;32.16;101790.91;1731136;82;25713;-57
2022/05/09 10:24:52;;;;;;;7.37;3.30;;;;;;;28.80;29.28;101778.25;1744666;81;25781;-58
2022/05/09 10:27:27;;;;;;;7.10;2.58;;;;;;;29.65;29.06;101778.25;1745591;82;25725;-58
2022/05/09 10:30:06;;;;;;;7.45;3.25;;;;;;;30.21;26.02;101762.63;1745796;80;27506;-58
2022/05/09 10:32:52;;;;;;;8.70;2.98;;;;;;;30.66;26.10;101761.88;1759374;80;25739;-57
2022/05/09 10:35:30;;;;;;;6.67;2.37;;;;;;;31.05;24.99;101759.85;1767663;80;25714;-58
2022/05/09 10:38:12;;;;;;;10.03;3.40;;;;;;;31.51;24.01;101755.07;1767338;80;26049;-58
2022/05/09 10:40:44;;;;;;;5.47;2.67;;;;;;;31.91;23.84;101747.66;1765236;81;25813;-58
2022/05/09 10:43:28;;;;;;;11.80;2.98;;;;;;;32.12;22.67;101745.13;1767152;81;27639;-58
2022/05/09 10:45:55;;;;;;;10.72;2.83;;;;;;;32.29;22.62;101742.32;1767433;81;25711;-58
2022/05/09 10:48:35;;;;;;;14.35;2.95;;;;;;;32.80;22.40;101736.52;1767215;81;25767;-58
2022/05/09 10:51:32;;;;;;;8.10;3.08;;;;;;;33.35;22.59;101731.72;1744474;81;25931;-58
2022/05/09 10:54:07;;;;;;;6.65;3.42;;;;;;;33.86;21.98;101733.17;1734516;82;25908;-58
2022/05/09 10:56:49;;;;;;;10.65;3.10;;;;;;;34.35;22.15;101732.56;1737345;82;28471;-58
2022/05/09 10:59:21;;;;;;;;;;;;;;;34.78;20.37;101723.47;1716465;82;25556;-58
2022/05/09 11:02:02;;;;;;;16.05;3.45;;;;;;;34.67;21.34;101724.56;1737805;82;25790;-58
2022/05/09 11:04:32;;;;;;;7.50;2.60;;;;;;;34.96;20.37;101726.33;1730969;82;25922;-58
2022/05/09 11:07:25;;;;;;;9.75;2.60;;;;;;;35.12;20.85;101727.14;1735315;82;26087;-58
2022/05/09 11:10:28;;;;;;;6.72;2.70;;;;;;;35.47;20.08;101714.27;1735053;82;27522;-58
2022/05/09 11:13:30;;;;;;;9.80;2.60;;;;;;;35.92;19.15;101709.42;1735577;82;25693;-58
2022/05/09 11:16:06;;;;;;;8.93;2.40;;;;;;;35.83;19.24;101711.95;1713322;83;25715;-58
2022/05/09 11:19:05;;;;;;;8.05;2.27;;;;;;;36.30;19.59;101709.80;1707625;83;26469;-58
2022/05/09 11:21:54;;;;;;;8.53;2.42;;;;;;;36.36;18.22;101708.64;1734711;82;25736;-60
2022/05/09 11:24:59;;;;;;;9.13;2.33;;;;;;;35.01;19.74;101705.34;1744678;81;28540;-59
2022/05/09 11:27:52;;;;;;;8.80;2.17;;;;;;;34.84;19.79;101693.57;1767824;81;25482;-60
2022/05/09 11:30:27;;;;;;;9.03;2.67;;;;;;;34.73;19.35;101695.53;1730263;81;25498;-60
2022/05/09 11:33:30;;;;;;;7.15;2.40;;;;;;;34.06;19.93;101693.92;1753590;80;25832;-61
2022/05/09 11:36:03;;;;;;;7.55;2.50;;;;;;;33.53;20.43;101694.17;1714525;82;25520;-59
2022/05/09 11:38:52;;;;;;;9.43;2.30;;;;;;;32.13;21.91;101692.00;1685320;81;27668;-59
2022/05/09 11:41:43;;;;;;;6.00;1.98;;;;;;;31.35;22.87;101690.06;1743971;82;25877;-60
2022/05/09 11:44:17;;;;;;;7.50;2.90;;;;;;;30.91;23.38;101682.92;1741429;81;25704;-59
2022/05/09 11:46:58;;;;;;;8.73;2.45;;;;;;;30.98;23.39;101688.30;1742868;81;25795;-59
2022/05/09 11:49:51;;;;;;;9.53;2.47;;;;;;;30.59;23.58;101691.78;1755783;81;25647;-60
2022/05/09 11:52:29;;;;;;;4.95;2.17;;;;;;;31.25;23.46;101690.43;1731769;82;27500;-59
2022/05/09 11:55:12;;;;;;;12.37;2.02;;;;;;;31.80;22.73;101678.48;1734105;80;25471;-60